createdAt,value
2022-12-04T00:01:18.539Z,5.60
2022-12-04T00:03:46.889Z,5.70
2022-12-04T00:06:17.455Z,5.60
2022-12-04T00:08:46.129Z,5.60
2022-12-04T00:11:15.494Z,5.60
2022-12-04T00:13:43.675Z,5.60
2022-12-04T00:16:16.241Z,5.60
2022-12-04T00:18:44.671Z,5.60
2022-12-04T00:21:14.458Z,5.60
2022-12-04T00:23:43.180Z,5.60
2022-12-04T00:26:14.181Z,5.60
2022-12-04T00:28:42.631Z,5.60
2022-12-04T00:31:15.519Z,5.70
2022-12-04T00:33:43.748Z,5.70
2022-12-04T00:36:14.275Z,5.70
2022-12-04T00:38:42.720Z,5.70
2022-12-04T00:41:11.472Z,5.70
2022-12-04T00:43:39.418Z,5.70
2022-12-04T00:46:07.781Z,5.70
2022-12-04T00:48:37.473Z,5.60
2022-12-04T00:51:06.989Z,5.60
2022-12-04T00:53:34.943Z,5.60
2022-12-04T00:56:05.560Z,5.60
2022-12-04T00:58:33.659Z,5.60
2022-12-04T01:01:04.853Z,5.60
2022-12-04T01:03:33.171Z,5.50
2022-12-04T01:06:02.647Z,5.50
2022-12-04T01:08:30.890Z,5.50
2022-12-04T01:10:59.128Z,5.50
2022-12-04T01:13:27.997Z,5.50
2022-12-04T01:15:55.970Z,5.50
2022-12-04T01:18:23.895Z,5.50
2022-12-04T01:20:53.103Z,5.50
2022-12-04T01:23:22.517Z,5.50
2022-12-04T01:25:54.369Z,5.50
2022-12-04T01:28:22.333Z,5.60
2022-12-04T01:31:02.814Z,5.60
2022-12-04T01:33:31.222Z,5.60
2022-12-04T01:36:01.195Z,5.60
2022-12-04T01:38:31.031Z,5.60
2022-12-04T01:40:59.788Z,5.60
2022-12-04T01:43:29.813Z,5.60
2022-12-04T01:45:58.653Z,5.60
2022-12-04T01:48:30.838Z,5.60
2022-12-04T01:51:05.919Z,5.60
2022-12-04T01:53:38.223Z,5.60
2022-12-04T01:56:07.547Z,5.60
2022-12-04T01:58:40.867Z,5.60
2022-12-04T02:01:09.702Z,5.60
2022-12-04T02:03:39.030Z,5.60
2022-12-04T02:06:07.832Z,5.60
2022-12-04T02:08:38.603Z,5.60
2022-12-04T02:11:15.105Z,5.60
2022-12-04T02:13:50.723Z,5.60
2022-12-04T02:16:24.783Z,5.60
2022-12-04T02:19:00.112Z,5.60
2022-12-04T02:21:33.753Z,5.60
2022-12-04T02:24:28.939Z,5.60
2022-12-04T02:27:02.245Z,5.60
2022-12-04T02:29:41.127Z,5.60
2022-12-04T02:32:18.637Z,5.70
2022-12-04T02:34:52.455Z,5.70
2022-12-04T02:37:28.656Z,5.70
2022-12-04T02:40:00.538Z,5.70
2022-12-04T02:42:33.821Z,5.70
2022-12-04T02:45:06.425Z,5.70
2022-12-04T02:47:36.134Z,5.70
2022-12-04T02:50:09.705Z,5.70
2022-12-04T02:52:41.955Z,5.70
2022-12-04T02:55:14.932Z,5.70
2022-12-04T02:57:47.767Z,5.70
2022-12-04T03:00:18.502Z,5.70
2022-12-04T03:02:53.334Z,5.70
2022-12-04T03:05:26.457Z,5.70
2022-12-04T03:07:58.189Z,5.70
2022-12-04T03:10:31.416Z,5.80
2022-12-04T03:13:04.575Z,5.80
2022-12-04T03:15:40.275Z,5.80
2022-12-04T03:18:14.175Z,5.80
2022-12-04T03:20:44.381Z,5.80
2022-12-04T03:23:17.314Z,5.80
2022-12-04T03:25:52.255Z,5.80
2022-12-04T03:28:28.655Z,5.80
2022-12-04T03:31:02.716Z,5.80
2022-12-04T03:33:34.691Z,5.90
2022-12-04T03:36:11.165Z,5.80
2022-12-04T03:38:43.317Z,5.80
2022-12-04T03:41:17.778Z,5.80
2022-12-04T03:43:52.713Z,5.70
2022-12-04T03:46:28.573Z,5.70
2022-12-04T03:49:04.283Z,5.70
2022-12-04T03:51:37.521Z,5.70
2022-12-04T03:54:09.855Z,5.70
2022-12-04T03:56:42.359Z,5.70
2022-12-04T03:59:13.543Z,5.80
2022-12-04T04:01:47.304Z,5.80
2022-12-04T04:04:18.274Z,5.70
2022-12-04T04:06:51.809Z,5.70
2022-12-04T04:09:25.474Z,5.70
2022-12-04T04:11:58.370Z,5.70
2022-12-04T04:14:52.330Z,5.60
2022-12-04T04:17:52.099Z,5.60
2022-12-04T04:20:42.542Z,5.60
2022-12-04T04:23:30.622Z,5.60
2022-12-04T04:26:01.889Z,5.60
2022-12-04T04:28:34.378Z,5.60
2022-12-04T04:31:20.085Z,5.60
2022-12-04T04:33:58.177Z,5.60
2022-12-04T04:36:34.748Z,5.60
2022-12-04T04:39:11.607Z,5.60
2022-12-04T04:41:50.217Z,5.60
2022-12-04T04:44:25.668Z,5.60
2022-12-04T04:46:59.052Z,5.70
2022-12-04T04:49:32.052Z,5.70
2022-12-04T04:52:01.053Z,5.70
2022-12-04T04:54:30.684Z,5.60
2022-12-04T04:56:58.552Z,5.60
2022-12-04T04:59:26.721Z,5.60
2022-12-04T05:01:54.896Z,5.60
2022-12-04T05:04:22.823Z,5.60
2022-12-04T05:06:52.080Z,5.60
2022-12-04T05:09:19.996Z,5.60
2022-12-04T05:11:47.944Z,5.60
2022-12-04T05:14:15.845Z,5.60
2022-12-04T05:16:43.743Z,5.60
2022-12-04T05:19:29.007Z,5.60
2022-12-04T05:21:58.332Z,5.60
2022-12-04T05:24:26.320Z,5.70
2022-12-04T05:26:54.259Z,5.70
2022-12-04T05:29:22.208Z,5.70
2022-12-04T05:31:50.232Z,5.70
2022-12-04T05:34:18.185Z,5.60
2022-12-04T05:36:46.164Z,5.70
2022-12-04T05:39:15.600Z,5.70
2022-12-04T05:41:43.517Z,5.70
2022-12-04T05:44:11.495Z,5.70
2022-12-04T05:46:39.471Z,5.70
2022-12-04T05:49:07.422Z,5.70
2022-12-04T05:51:35.312Z,5.80
2022-12-04T05:54:03.244Z,5.80
2022-12-04T05:56:32.517Z,5.80
2022-12-04T05:59:00.375Z,5.80
2022-12-04T06:01:28.285Z,5.80
2022-12-04T06:03:56.140Z,5.80
2022-12-04T06:06:26.143Z,5.80
2022-12-04T06:08:56.351Z,5.80
2022-12-04T06:11:27.475Z,5.80
2022-12-04T06:13:57.826Z,5.90
2022-12-04T06:16:27.847Z,5.90
2022-12-04T06:18:57.944Z,5.90
2022-12-04T06:21:27.895Z,5.80
2022-12-04T06:23:56.128Z,5.80
2022-12-04T06:26:24.382Z,5.80
2022-12-04T06:28:54.498Z,5.80
2022-12-04T06:31:24.569Z,5.80
2022-12-04T06:33:53.760Z,5.80
2022-12-04T06:36:22.800Z,5.80
2022-12-04T06:38:51.673Z,5.70
2022-12-04T06:41:21.971Z,5.70
2022-12-04T06:43:51.716Z,5.70
2022-12-04T06:46:21.900Z,5.70
2022-12-04T06:48:51.167Z,5.70
2022-12-04T06:51:21.245Z,5.70
2022-12-04T06:53:49.694Z,5.70
2022-12-04T06:56:20.003Z,5.70
2022-12-04T06:58:49.108Z,5.70
2022-12-04T07:01:20.442Z,5.70
2022-12-04T07:03:51.533Z,5.70
2022-12-04T07:06:23.448Z,5.80
2022-12-04T07:08:54.439Z,5.80
2022-12-04T07:11:23.290Z,5.80
2022-12-04T07:13:51.877Z,5.80
2022-12-04T07:16:22.220Z,5.80
2022-12-04T07:18:53.247Z,5.90
2022-12-04T07:21:25.526Z,5.90
2022-12-04T07:23:55.112Z,5.90
2022-12-04T07:26:24.076Z,5.90
2022-12-04T07:28:52.394Z,5.90
2022-12-04T07:31:22.621Z,5.90
2022-12-04T07:33:51.153Z,5.90
2022-12-04T07:36:20.869Z,5.80
2022-12-04T07:38:50.481Z,5.90
2022-12-04T07:41:19.523Z,5.90
2022-12-04T07:43:47.781Z,5.90
2022-12-04T07:46:17.831Z,5.90
2022-12-04T07:48:45.894Z,5.80
2022-12-04T07:51:16.484Z,5.90
2022-12-04T07:53:45.176Z,5.80
2022-12-04T07:56:15.615Z,5.80
2022-12-04T07:58:43.722Z,5.80
2022-12-04T08:01:13.904Z,5.80
2022-12-04T08:03:47.682Z,5.80
2022-12-04T08:06:17.739Z,5.80
2022-12-04T08:08:45.858Z,5.90
2022-12-04T08:11:17.344Z,5.80
2022-12-04T08:13:45.716Z,5.90
2022-12-04T08:16:14.494Z,5.90
2022-12-04T08:18:46.642Z,5.90
2022-12-04T08:21:17.003Z,6.00
2022-12-04T08:23:45.764Z,5.90
2022-12-04T08:26:15.518Z,5.90
2022-12-04T08:28:43.516Z,6.00
2022-12-04T08:31:13.596Z,5.90
2022-12-04T08:33:42.765Z,6.00
2022-12-04T08:36:12.996Z,6.00
2022-12-04T08:38:41.137Z,6.00
2022-12-04T08:41:12.291Z,6.00
2022-12-04T08:43:41.856Z,6.00
2022-12-04T08:46:11.917Z,6.00
2022-12-04T08:48:40.470Z,6.00
2022-12-04T08:51:09.124Z,6.00
2022-12-04T08:53:37.550Z,6.00
2022-12-04T08:56:05.988Z,6.00
2022-12-04T08:58:33.921Z,6.00
2022-12-04T09:01:07.211Z,6.10
2022-12-04T09:03:35.280Z,6.10
2022-12-04T09:06:05.500Z,6.20
2022-12-04T09:08:34.399Z,6.20
2022-12-04T09:11:05.984Z,6.20
2022-12-04T09:13:34.216Z,6.30
2022-12-04T09:16:07.287Z,6.30
2022-12-04T09:18:36.243Z,6.30
2022-12-04T09:21:07.919Z,6.30
2022-12-04T09:23:37.191Z,6.30
2022-12-04T09:26:06.521Z,6.30
2022-12-04T09:28:34.435Z,6.30
2022-12-04T09:31:04.493Z,6.40
2022-12-04T09:33:34.291Z,6.40
2022-12-04T09:36:02.801Z,6.40
2022-12-04T09:38:31.559Z,6.50
2022-12-04T09:41:06.552Z,6.70
2022-12-04T09:43:43.158Z,6.80
2022-12-04T09:46:16.300Z,6.80
2022-12-04T09:48:49.111Z,6.90
2022-12-04T09:51:19.446Z,6.80
2022-12-04T09:53:50.691Z,6.90
2022-12-04T09:56:20.892Z,6.80
2022-12-04T09:58:53.305Z,6.80
2022-12-04T10:01:25.743Z,6.90
2022-12-04T10:04:00.054Z,6.90
2022-12-04T10:06:40.402Z,7.00
2022-12-04T10:09:16.367Z,7.00
2022-12-04T10:11:53.461Z,7.10
2022-12-04T10:14:44.659Z,7.00
2022-12-04T10:17:32.484Z,7.10
2022-12-04T10:20:12.744Z,7.10
2022-12-04T10:22:50.582Z,7.10
2022-12-04T10:25:22.012Z,7.10
2022-12-04T10:27:53.849Z,7.20
2022-12-04T10:30:23.848Z,7.10
2022-12-04T10:32:58.225Z,7.10
2022-12-04T10:35:30.474Z,7.10
2022-12-04T10:38:01.041Z,7.10
2022-12-04T10:40:34.196Z,7.10
2022-12-04T10:43:07.096Z,7.10
2022-12-04T10:45:35.257Z,7.10
2022-12-04T10:48:03.224Z,7.10
2022-12-04T10:50:32.559Z,7.10
2022-12-04T10:53:00.524Z,7.10
2022-12-04T10:55:31.281Z,7.10
2022-12-04T10:57:59.512Z,7.20
2022-12-04T11:00:30.444Z,7.20
2022-12-04T11:03:00.923Z,7.20
2022-12-04T11:05:32.972Z,7.20
2022-12-04T11:08:04.220Z,7.20
2022-12-04T11:10:37.601Z,7.20
2022-12-04T11:13:15.061Z,7.20
2022-12-04T11:15:45.286Z,7.10
2022-12-04T11:18:19.141Z,7.10
2022-12-04T11:20:54.772Z,7.10
2022-12-04T11:23:23.624Z,7.00
2022-12-04T11:25:53.723Z,7.00
2022-12-04T11:28:41.111Z,7.00
2022-12-04T11:31:11.631Z,7.00
2022-12-04T11:33:44.228Z,6.90
2022-12-04T11:36:22.478Z,7.00
2022-12-04T11:38:51.683Z,6.90
2022-12-04T11:41:28.029Z,6.90
2022-12-04T11:44:00.253Z,6.90
2022-12-04T11:46:31.563Z,6.90
2022-12-04T11:48:59.716Z,7.00
2022-12-04T11:51:43.802Z,7.00
2022-12-04T11:54:21.931Z,6.90
2022-12-04T11:56:59.850Z,6.90
2022-12-04T11:59:49.734Z,6.90
2022-12-04T12:02:36.844Z,7.00
2022-12-04T12:05:19.475Z,7.00
2022-12-04T12:07:56.390Z,7.00
2022-12-04T12:10:41.580Z,7.00
2022-12-04T12:13:24.778Z,7.00
2022-12-04T12:16:03.000Z,7.00
2022-12-04T12:19:04.712Z,7.10
2022-12-04T12:21:40.517Z,7.10
2022-12-04T12:24:25.339Z,7.10
2022-12-04T12:27:04.806Z,7.10
2022-12-04T12:29:47.916Z,7.10
2022-12-04T12:32:28.587Z,7.10
2022-12-04T12:34:56.831Z,7.10
2022-12-04T12:37:29.388Z,7.10
2022-12-04T12:40:04.192Z,7.20
2022-12-04T12:42:35.782Z,7.20
2022-12-04T12:45:09.110Z,7.20
2022-12-04T12:47:43.336Z,7.30
2022-12-04T12:50:18.714Z,7.20
2022-12-04T12:52:53.720Z,7.20
2022-12-04T12:55:26.813Z,7.30
2022-12-04T12:58:02.261Z,7.30
2022-12-04T13:00:31.324Z,7.40
2022-12-04T13:03:03.984Z,7.30
2022-12-04T13:05:35.185Z,7.30
2022-12-04T13:08:15.382Z,7.30
2022-12-04T13:10:49.697Z,7.20
2022-12-04T13:13:23.169Z,7.20
2022-12-04T13:15:56.673Z,7.20
2022-12-04T13:18:28.445Z,7.30
2022-12-04T13:20:59.145Z,7.30
2022-12-04T13:23:47.932Z,7.30
2022-12-04T13:26:28.829Z,7.20
2022-12-04T13:29:04.539Z,7.20
2022-12-04T13:31:39.491Z,7.20
2022-12-04T13:34:31.777Z,7.20
2022-12-04T13:37:13.308Z,7.20
2022-12-04T13:40:14.566Z,7.10
2022-12-04T13:42:44.017Z,7.20
2022-12-04T13:45:25.379Z,7.10
2022-12-04T13:47:58.236Z,7.10
2022-12-04T13:50:31.652Z,7.10
2022-12-04T13:53:00.699Z,7.10
2022-12-04T13:55:32.039Z,7.10
2022-12-04T13:58:04.640Z,7.00
2022-12-04T14:00:34.937Z,7.00
2022-12-04T14:03:06.603Z,7.00
2022-12-04T14:05:42.362Z,7.00
2022-12-04T14:08:24.411Z,7.00
2022-12-04T14:11:00.982Z,7.00
2022-12-04T14:13:37.921Z,7.00
2022-12-04T14:16:10.031Z,7.00
2022-12-04T14:18:39.018Z,7.00
2022-12-04T14:21:07.456Z,7.00
2022-12-04T14:23:38.060Z,7.10
2022-12-04T14:26:06.716Z,7.10
2022-12-04T14:28:45.193Z,7.10
2022-12-04T14:31:26.655Z,7.10
2022-12-04T14:33:58.926Z,7.10
2022-12-04T14:36:29.054Z,7.10
2022-12-04T14:39:05.097Z,7.10
2022-12-04T14:41:33.652Z,7.10
2022-12-04T14:44:03.154Z,7.00
2022-12-04T14:46:41.673Z,7.00
2022-12-04T14:49:22.832Z,7.00
2022-12-04T14:51:59.955Z,7.00
2022-12-04T14:54:34.299Z,7.00
2022-12-04T14:57:19.023Z,7.00
2022-12-04T14:59:50.712Z,7.00
2022-12-04T15:02:22.000Z,6.90
2022-12-04T15:04:51.841Z,6.90
2022-12-04T15:07:21.309Z,6.90
2022-12-04T15:10:11.631Z,6.90
2022-12-04T15:12:46.513Z,7.00
2022-12-04T15:15:19.518Z,6.90
2022-12-04T15:17:58.031Z,6.90
2022-12-04T15:20:27.055Z,6.80
2022-12-04T15:22:58.692Z,6.80
2022-12-04T15:25:30.683Z,6.80
2022-12-04T15:28:06.804Z,6.80
2022-12-04T15:30:38.172Z,6.80
2022-12-04T15:33:06.687Z,6.80
2022-12-04T15:35:35.514Z,6.80
2022-12-04T15:38:03.722Z,6.70
2022-12-04T15:40:32.001Z,6.70
2022-12-04T15:43:17.239Z,6.70
2022-12-04T15:45:46.512Z,6.80
2022-12-04T15:48:25.580Z,6.80
2022-12-04T15:50:58.440Z,6.80
2022-12-04T15:53:28.757Z,6.90
2022-12-04T15:56:00.694Z,6.90
2022-12-04T15:58:30.739Z,6.90
2022-12-04T16:01:02.168Z,6.80
2022-12-04T16:03:32.460Z,6.80
2022-12-04T16:06:05.864Z,6.80
2022-12-04T16:08:35.589Z,6.70
2022-12-04T16:11:05.816Z,6.70
2022-12-04T16:13:35.574Z,6.70
2022-12-04T16:16:08.736Z,6.70
2022-12-04T16:18:36.646Z,6.70
2022-12-04T16:21:04.741Z,6.70
2022-12-04T16:23:33.579Z,6.60
2022-12-04T16:26:01.453Z,6.70
2022-12-04T16:28:29.370Z,6.60
2022-12-04T16:30:57.272Z,6.60
2022-12-04T16:33:26.519Z,6.60
2022-12-04T16:35:54.389Z,6.60
2022-12-04T16:38:22.226Z,6.70
2022-12-04T16:40:50.094Z,6.70
2022-12-04T16:43:18.528Z,6.70
2022-12-04T16:45:49.663Z,6.70
2022-12-04T16:48:17.503Z,6.70
2022-12-04T16:50:47.204Z,6.70
2022-12-04T16:53:17.856Z,6.70
2022-12-04T16:55:46.708Z,6.70
2022-12-04T16:58:14.764Z,6.70
2022-12-04T17:00:44.502Z,6.70
2022-12-04T17:03:18.932Z,6.70
2022-12-04T17:05:48.155Z,6.70
2022-12-04T17:08:16.329Z,6.70
2022-12-04T17:10:44.199Z,6.70
2022-12-04T17:13:12.107Z,6.70
2022-12-04T17:15:40.002Z,6.70
2022-12-04T17:18:12.172Z,6.70
2022-12-04T17:20:43.003Z,6.70
2022-12-04T17:23:13.445Z,6.80
2022-12-04T17:25:41.534Z,6.80
2022-12-04T17:28:09.709Z,6.80
2022-12-04T17:30:37.628Z,6.90
2022-12-04T17:33:06.106Z,6.80
2022-12-04T17:35:34.066Z,6.80
2022-12-04T17:38:05.968Z,6.80
2022-12-04T17:40:35.747Z,6.80
2022-12-04T17:43:04.013Z,6.80
2022-12-04T17:45:31.968Z,6.70
2022-12-04T17:48:01.208Z,6.80
2022-12-04T17:50:29.016Z,6.80
2022-12-04T17:52:56.855Z,6.80
2022-12-04T17:55:24.781Z,6.80
2022-12-04T17:57:53.976Z,6.80
2022-12-04T18:00:21.917Z,6.80
2022-12-04T18:02:53.216Z,6.80
2022-12-04T18:05:21.571Z,6.80
2022-12-04T18:07:49.580Z,6.80
2022-12-04T18:10:17.556Z,6.80
2022-12-04T18:12:45.476Z,6.80
2022-12-04T18:15:14.649Z,6.80
2022-12-04T18:17:42.534Z,6.90
2022-12-04T18:20:11.041Z,6.90
2022-12-04T18:22:39.028Z,6.90
2022-12-04T18:25:08.997Z,6.90
2022-12-04T18:27:41.654Z,6.90
2022-12-04T18:30:11.842Z,6.90
2022-12-04T18:32:41.078Z,6.90
2022-12-04T18:35:09.607Z,6.90
2022-12-04T18:37:37.503Z,7.00
2022-12-04T18:40:07.276Z,7.10
2022-12-04T18:42:35.458Z,7.10
2022-12-04T18:45:03.358Z,7.00
2022-12-04T18:47:31.205Z,7.00
2022-12-04T18:50:00.725Z,7.00
2022-12-04T18:52:28.707Z,7.00
2022-12-04T18:54:56.537Z,6.90
2022-12-04T18:57:24.420Z,7.00
2022-12-04T18:59:52.559Z,6.90
2022-12-04T19:02:20.489Z,6.90
2022-12-04T19:04:48.334Z,7.00
2022-12-04T19:07:18.680Z,7.00
2022-12-04T19:12:34.549Z,6.90
2022-12-04T19:15:02.451Z,6.90
2022-12-04T19:17:30.279Z,6.90
2022-12-04T19:19:58.737Z,6.90
2022-12-04T19:22:28.104Z,6.90
2022-12-04T19:24:55.980Z,6.80
2022-12-04T19:27:23.865Z,6.80
2022-12-04T19:29:51.719Z,6.80
2022-12-04T19:32:19.774Z,6.80
2022-12-04T19:34:49.639Z,6.80
2022-12-04T19:37:18.640Z,6.80
2022-12-04T19:39:48.219Z,6.80
2022-12-04T19:42:16.085Z,6.80
2022-12-04T19:44:48.852Z,6.70
2022-12-04T19:47:17.776Z,6.70
2022-12-04T19:49:46.417Z,6.70
2022-12-04T19:52:14.364Z,6.70
2022-12-04T19:54:42.227Z,6.70
2022-12-04T19:57:11.423Z,6.70
2022-12-04T19:59:44.548Z,6.80
2022-12-04T20:02:14.222Z,6.90
2022-12-04T20:04:43.071Z,6.90
2022-12-04T20:07:11.100Z,6.80
2022-12-04T20:09:38.974Z,6.80
2022-12-04T20:12:07.218Z,6.80
2022-12-04T20:14:36.393Z,6.70
2022-12-04T20:17:05.152Z,6.80
2022-12-04T20:19:33.397Z,6.80
2022-12-04T20:22:01.221Z,6.80
2022-12-04T20:24:29.043Z,6.80
2022-12-04T20:26:56.960Z,6.80
2022-12-04T20:29:24.834Z,6.80
2022-12-04T20:31:54.084Z,6.80
2022-12-04T20:34:22.004Z,6.80
2022-12-04T20:36:50.420Z,6.80
2022-12-04T20:39:19.803Z,6.80
2022-12-04T20:41:48.189Z,6.80
2022-12-04T20:44:18.028Z,6.80
2022-12-04T20:46:46.155Z,6.80
2022-12-04T20:49:22.052Z,6.90
2022-12-04T20:51:51.516Z,6.90
2022-12-04T20:54:21.703Z,6.90
2022-12-04T20:56:50.294Z,6.90
2022-12-04T20:59:19.749Z,6.90
2022-12-04T21:01:49.041Z,6.90
2022-12-04T21:04:19.160Z,6.90
2022-12-04T21:06:47.776Z,6.90
2022-12-04T21:09:18.043Z,7.00
2022-12-04T21:11:47.864Z,6.90
2022-12-04T21:14:35.354Z,6.90
2022-12-04T21:17:05.965Z,6.90
2022-12-04T21:19:35.199Z,6.80
2022-12-04T21:22:03.143Z,6.90
2022-12-04T21:24:36.224Z,6.80
2022-12-04T21:27:04.143Z,6.80
2022-12-04T21:29:31.981Z,6.80
2022-12-04T21:31:59.814Z,6.80
2022-12-04T21:34:27.673Z,6.80
2022-12-04T21:36:57.007Z,6.70
2022-12-04T21:39:25.648Z,6.70
2022-12-04T21:42:11.449Z,6.70
2022-12-04T21:44:39.342Z,6.70
2022-12-04T21:47:07.188Z,6.70
2022-12-04T21:49:35.020Z,6.70
2022-12-04T21:52:04.251Z,6.60
2022-12-04T21:54:32.370Z,6.60
2022-12-04T21:57:00.509Z,6.60
2022-12-04T21:59:28.480Z,6.60
2022-12-04T22:01:56.521Z,6.60
2022-12-04T22:04:24.744Z,6.60
2022-12-04T22:06:52.730Z,6.60
2022-12-04T22:09:21.954Z,6.60
2022-12-04T22:11:49.890Z,6.70
2022-12-04T22:14:17.792Z,6.60
2022-12-04T22:16:45.734Z,6.60
2022-12-04T22:19:14.156Z,6.70
2022-12-04T22:21:42.844Z,6.80
2022-12-04T22:24:11.362Z,6.70
2022-12-04T22:26:40.876Z,6.70
2022-12-04T22:29:34.240Z,6.70
2022-12-04T22:31:56.602Z,6.70
2022-12-04T22:34:24.411Z,6.60
2022-12-04T22:36:52.224Z,6.60
2022-12-04T22:39:20.089Z,6.60
2022-12-04T22:41:49.268Z,6.60
2022-12-04T22:44:17.162Z,6.60
2022-12-04T22:46:45.033Z,6.60
2022-12-04T22:49:12.985Z,6.60
2022-12-04T22:51:40.836Z,6.50
2022-12-04T22:54:12.640Z,6.50
2022-12-04T22:56:40.797Z,6.50
2022-12-04T22:59:09.987Z,6.50
2022-12-04T23:01:37.861Z,6.40
2022-12-04T23:04:05.720Z,6.40
2022-12-04T23:06:34.942Z,6.40
2022-12-04T23:09:04.996Z,6.40
2022-12-04T23:11:33.096Z,6.40
2022-12-04T23:14:03.252Z,6.40
2022-12-04T23:16:35.521Z,6.40
2022-12-04T23:19:04.075Z,6.40
2022-12-04T23:21:32.211Z,6.40
2022-12-04T23:24:00.261Z,6.40
2022-12-04T23:26:31.149Z,6.40
2022-12-04T23:28:59.541Z,6.50
2022-12-04T23:31:27.450Z,6.50
2022-12-04T23:33:56.842Z,6.50
2022-12-04T23:36:24.733Z,6.50
2022-12-04T23:38:52.954Z,6.50
2022-12-04T23:41:22.605Z,6.50
2022-12-04T23:43:52.485Z,6.50
2022-12-04T23:46:22.306Z,6.50
2022-12-04T23:48:50.546Z,6.60
2022-12-04T23:51:20.722Z,6.60
2022-12-04T23:53:49.442Z,6.60
2022-12-04T23:56:19.155Z,6.60
2022-12-04T23:58:48.925Z,6.60
